createdAt,value
2022-08-17T00:00:42.772Z,79.12
2022-08-17T00:01:27.284Z,79.16
2022-08-17T00:02:01.463Z,79.14
2022-08-17T00:03:02.961Z,79.25
2022-08-17T00:03:40.544Z,79.32
2022-08-17T00:04:14.113Z,79.33
2022-08-17T00:04:50.771Z,79.37
2022-08-17T00:05:24.981Z,79.45
2022-08-17T00:06:09.037Z,79.45
2022-08-17T00:06:42.310Z,79.53
2022-08-17T00:07:19.056Z,79.58
2022-08-17T00:07:52.229Z,79.61
2022-08-17T00:08:31.647Z,79.68
2022-08-17T00:09:05.978Z,79.65
2022-08-17T00:09:39.590Z,79.67
2022-08-17T00:10:12.933Z,79.61
2022-08-17T00:10:46.890Z,79.67
2022-08-17T00:11:30.820Z,79.68
2022-08-17T00:12:42.111Z,79.60
2022-08-17T00:12:58.718Z,79.65
2022-08-17T00:13:39.263Z,79.66
2022-08-17T00:14:19.169Z,79.73
2022-08-17T00:14:52.463Z,79.70
2022-08-17T00:15:25.665Z,79.72
2022-08-17T00:16:02.671Z,79.83
2022-08-17T00:16:55.907Z,79.68
2022-08-17T00:17:30.815Z,79.72
2022-08-17T00:18:04.604Z,79.85
2022-08-17T00:19:07.686Z,79.83
2022-08-17T00:19:42.117Z,79.90
2022-08-17T00:20:15.735Z,79.95
2022-08-17T00:20:52.888Z,79.89
2022-08-17T00:21:26.818Z,79.96
2022-08-17T00:22:34.465Z,79.86
2022-08-17T00:23:15.778Z,79.87
2022-08-17T00:23:49.534Z,79.90
2022-08-17T00:24:23.355Z,80.03
2022-08-17T00:24:56.507Z,80.14
2022-08-17T00:25:29.665Z,80.16
2022-08-17T00:26:03.017Z,80.18
2022-08-17T00:26:44.598Z,80.27
2022-08-17T00:27:19.633Z,80.28
2022-08-17T00:27:52.735Z,80.41
2022-08-17T00:28:28.072Z,80.53
2022-08-17T00:29:08.717Z,80.59
2022-08-17T00:29:42.786Z,80.70
2022-08-17T00:30:16.087Z,80.70
2022-08-17T00:30:53.433Z,80.76
2022-08-17T00:31:27.457Z,80.82
2022-08-17T00:33:12.433Z,80.77
2022-08-17T00:33:22.800Z,80.85
2022-08-17T00:33:49.862Z,80.84
2022-08-17T00:34:25.507Z,80.87
2022-08-17T00:35:05.556Z,80.93
2022-08-17T00:35:40.957Z,81.04
2022-08-17T00:36:15.365Z,80.95
2022-08-17T00:36:48.631Z,81.00
2022-08-17T00:37:21.949Z,81.12
2022-08-17T00:37:55.712Z,81.07
2022-08-17T00:38:30.416Z,81.15
2022-08-17T00:39:04.326Z,81.07
2022-08-17T00:39:37.587Z,81.14
2022-08-17T00:40:14.320Z,81.12
2022-08-17T00:40:52.166Z,81.11
2022-08-17T00:41:29.694Z,81.14
2022-08-17T00:42:14.976Z,81.09
2022-08-17T00:42:49.304Z,81.07
2022-08-17T00:43:30.790Z,81.07
2022-08-17T00:44:06.955Z,81.07
2022-08-17T00:44:40.489Z,81.02
2022-08-17T00:45:16.376Z,81.02
2022-08-17T00:45:49.866Z,81.07
2022-08-17T00:46:28.740Z,81.05
2022-08-17T00:47:01.799Z,80.97
2022-08-17T00:47:35.050Z,81.03
2022-08-17T00:48:26.208Z,80.90
2022-08-17T00:49:01.832Z,80.93
2022-08-17T00:49:35.017Z,80.93
2022-08-17T00:50:12.907Z,80.96
2022-08-17T00:51:12.748Z,80.98
2022-08-17T00:51:51.135Z,80.83
2022-08-17T00:52:30.795Z,80.84
2022-08-17T00:53:05.356Z,80.87
2022-08-17T00:53:43.515Z,80.89
2022-08-17T00:54:32.371Z,80.90
2022-08-17T00:55:07.675Z,80.89
2022-08-17T00:55:40.905Z,80.88
2022-08-17T00:56:22.740Z,80.86
2022-08-17T00:57:01.124Z,80.88
2022-08-17T00:57:42.788Z,80.86
2022-08-17T00:58:16.425Z,80.90
2022-08-17T00:59:07.887Z,80.93
2022-08-17T01:00:01.617Z,80.97
2022-08-17T01:00:41.121Z,80.96
2022-08-17T01:01:21.496Z,80.96
2022-08-17T01:01:55.176Z,80.93
2022-08-17T01:02:30.120Z,80.86
2022-08-17T01:03:13.717Z,80.81
2022-08-17T01:03:47.037Z,80.86
2022-08-17T01:04:22.454Z,80.80
2022-08-17T01:04:57.403Z,80.81
2022-08-17T01:05:34.174Z,80.74
2022-08-17T01:06:09.435Z,80.73
2022-08-17T01:06:43.478Z,80.65
2022-08-17T01:07:18.054Z,80.56
2022-08-17T01:07:51.968Z,80.58
2022-08-17T01:08:27.414Z,80.54
2022-08-17T01:09:03.738Z,80.48
2022-08-17T01:09:37.433Z,80.44
2022-08-17T01:10:57.477Z,80.48
2022-08-17T01:11:07.938Z,80.50
2022-08-17T01:11:41.510Z,80.53
2022-08-17T01:12:14.717Z,80.44
2022-08-17T01:12:47.731Z,80.44
2022-08-17T01:13:23.027Z,80.48
2022-08-17T01:13:56.277Z,80.40
2022-08-17T01:14:29.423Z,80.44
2022-08-17T01:15:03.142Z,80.38
2022-08-17T01:15:39.377Z,80.40
2022-08-17T01:16:16.635Z,80.35
2022-08-17T01:16:51.558Z,80.31
2022-08-17T01:17:27.739Z,80.37
2022-08-17T01:18:01.052Z,80.31
2022-08-17T01:18:35.796Z,80.31
2022-08-17T01:19:18.356Z,80.18
2022-08-17T01:19:51.496Z,80.25
2022-08-17T01:20:25.431Z,80.28
2022-08-17T01:21:04.801Z,80.21
2022-08-17T01:22:09.089Z,80.23
2022-08-17T01:22:42.524Z,80.19
2022-08-17T01:23:20.967Z,80.26
2022-08-17T01:23:54.615Z,80.30
2022-08-17T01:24:28.572Z,80.29
2022-08-17T01:25:06.497Z,80.25
2022-08-17T01:25:42.110Z,80.18
2022-08-17T01:26:16.008Z,80.20
2022-08-17T01:26:49.632Z,80.13
2022-08-17T01:27:25.246Z,80.12
2022-08-17T01:27:58.460Z,80.19
2022-08-17T01:28:54.542Z,80.21
2022-08-17T01:29:31.395Z,80.12
2022-08-17T01:30:57.314Z,80.10
2022-08-17T01:31:07.303Z,79.96
2022-08-17T01:31:49.559Z,79.87
2022-08-17T01:32:22.757Z,79.96
2022-08-17T01:32:56.026Z,79.87
2022-08-17T01:33:30.166Z,79.86
2022-08-17T01:34:09.110Z,79.83
2022-08-17T01:34:43.554Z,79.83
2022-08-17T01:35:23.341Z,79.83
2022-08-17T01:35:57.056Z,79.78
2022-08-17T01:36:30.789Z,79.76
2022-08-17T01:37:04.621Z,79.67
2022-08-17T01:37:41.295Z,79.68
2022-08-17T01:38:14.456Z,79.68
2022-08-17T01:38:47.642Z,79.62
2022-08-17T01:39:43.097Z,79.68
2022-08-17T01:40:26.826Z,79.60
2022-08-17T01:41:12.057Z,79.51
2022-08-17T01:41:47.111Z,79.57
2022-08-17T01:42:31.290Z,79.49
2022-08-17T01:43:12.496Z,79.48
2022-08-17T01:43:55.536Z,79.54
2022-08-17T01:44:28.696Z,79.47
2022-08-17T01:45:24.005Z,79.49
2022-08-17T01:46:02.804Z,79.48
2022-08-17T01:46:39.145Z,79.54
2022-08-17T01:47:12.620Z,79.47
2022-08-17T01:47:46.887Z,79.58
2022-08-17T01:48:21.653Z,79.59
2022-08-17T01:48:57.838Z,79.55
2022-08-17T01:49:31.416Z,79.60
2022-08-17T01:50:20.079Z,79.57
2022-08-17T01:50:53.716Z,79.55
2022-08-17T01:51:33.109Z,79.53
2022-08-17T01:52:11.598Z,79.48
2022-08-17T01:52:46.807Z,79.48
2022-08-17T01:53:24.876Z,79.49
2022-08-17T01:54:11.493Z,79.46
2022-08-17T01:54:48.040Z,79.36
2022-08-17T01:55:31.683Z,79.40
2022-08-17T01:56:11.509Z,79.51
2022-08-17T01:56:47.836Z,79.36
2022-08-17T01:57:20.997Z,79.45
2022-08-17T01:57:54.301Z,79.41
2022-08-17T01:58:27.584Z,79.47
2022-08-17T01:59:01.023Z,79.51
2022-08-17T01:59:34.220Z,79.48
2022-08-17T02:00:11.157Z,79.45
2022-08-17T02:00:46.850Z,79.47
2022-08-17T02:01:35.245Z,79.38
2022-08-17T02:02:09.040Z,79.35
2022-08-17T02:02:43.029Z,79.29
2022-08-17T02:03:16.642Z,79.29
2022-08-17T02:03:54.552Z,79.21
2022-08-17T02:04:34.340Z,79.05
2022-08-17T02:05:08.566Z,79.13
2022-08-17T02:05:42.353Z,79.10
2022-08-17T02:06:27.958Z,79.17
2022-08-17T02:07:01.643Z,79.02
2022-08-17T02:07:59.511Z,79.03
2022-08-17T02:08:39.217Z,79.00
2022-08-17T02:09:29.859Z,79.13
2022-08-17T02:10:06.215Z,79.08
2022-08-17T02:10:55.407Z,79.14
2022-08-17T02:11:28.832Z,79.16
2022-08-17T02:12:37.862Z,79.31
2022-08-17T02:12:57.151Z,79.38
2022-08-17T02:13:31.159Z,79.47
2022-08-17T02:14:06.340Z,79.45
2022-08-17T02:14:40.022Z,79.51
2022-08-17T02:15:15.505Z,79.59
2022-08-17T02:15:49.693Z,79.55
2022-08-17T02:16:22.865Z,79.55
2022-08-17T02:16:56.954Z,79.56
2022-08-17T02:17:30.041Z,79.56
2022-08-17T02:18:06.003Z,79.56
2022-08-17T02:18:39.161Z,79.65
2022-08-17T02:19:16.030Z,79.68
2022-08-17T02:19:49.208Z,79.71
2022-08-17T02:20:41.214Z,79.70
2022-08-17T02:21:16.115Z,79.68
2022-08-17T02:21:51.953Z,79.76
2022-08-17T02:22:26.596Z,79.71
2022-08-17T02:23:03.877Z,79.75
2022-08-17T02:23:44.167Z,79.74
2022-08-17T02:24:58.356Z,79.68
2022-08-17T02:25:37.031Z,79.58
2022-08-17T02:26:10.194Z,79.55
2022-08-17T02:26:58.879Z,79.60
2022-08-17T02:27:32.535Z,79.57
2022-08-17T02:28:05.780Z,79.47
2022-08-17T02:28:38.952Z,79.57
2022-08-17T02:29:15.077Z,79.60
2022-08-17T02:29:48.321Z,79.63
2022-08-17T02:31:02.203Z,79.58
2022-08-17T02:31:14.808Z,79.64
2022-08-17T02:31:48.533Z,79.53
2022-08-17T02:32:28.407Z,79.55
2022-08-17T02:33:04.093Z,79.58
2022-08-17T02:33:42.428Z,79.61
2022-08-17T02:34:16.577Z,79.70
2022-08-17T02:34:50.950Z,79.64
2022-08-17T02:35:24.096Z,79.70
2022-08-17T02:35:58.267Z,79.63
2022-08-17T02:36:32.941Z,79.70
2022-08-17T02:37:06.366Z,79.67
2022-08-17T02:37:42.323Z,79.66
2022-08-17T02:38:15.655Z,79.61
2022-08-17T02:38:48.894Z,79.62
2022-08-17T02:39:22.028Z,79.64
2022-08-17T02:39:57.306Z,79.63
2022-08-17T02:40:35.806Z,79.67
2022-08-17T02:41:10.534Z,79.62
2022-08-17T02:41:45.477Z,79.68
2022-08-17T02:42:18.747Z,79.72
2022-08-17T02:42:51.964Z,79.74
2022-08-17T02:43:28.927Z,79.74
2022-08-17T02:44:02.251Z,79.69
2022-08-17T02:44:39.603Z,79.71
2022-08-17T02:45:17.639Z,79.85
2022-08-17T02:45:51.869Z,79.81
2022-08-17T02:46:26.267Z,79.88
2022-08-17T02:46:59.841Z,79.81
2022-08-17T02:47:32.968Z,79.77
2022-08-17T02:48:06.393Z,79.85
2022-08-17T02:48:40.515Z,79.94
2022-08-17T02:49:13.626Z,79.86
2022-08-17T02:49:54.059Z,79.88
2022-08-17T02:50:29.728Z,79.95
2022-08-17T02:51:02.824Z,79.89
2022-08-17T02:51:37.173Z,80.00
2022-08-17T02:52:10.361Z,79.95
2022-08-17T02:52:48.833Z,79.95
2022-08-17T02:53:35.803Z,79.83
2022-08-17T02:54:39.814Z,79.82
2022-08-17T02:55:03.281Z,79.91
2022-08-17T02:55:40.591Z,79.88
2022-08-17T02:56:13.781Z,80.02
2022-08-17T02:56:47.099Z,80.10
2022-08-17T02:57:20.336Z,80.13
2022-08-17T02:58:04.108Z,80.16
2022-08-17T02:58:37.217Z,80.26
2022-08-17T02:59:10.505Z,80.29
2022-08-17T02:59:48.816Z,80.32
2022-08-17T03:00:35.233Z,80.36
2022-08-17T03:01:12.575Z,80.37
2022-08-17T03:01:45.949Z,80.44
2022-08-17T03:02:19.210Z,80.35
2022-08-17T03:02:52.843Z,80.34
2022-08-17T03:03:26.712Z,80.30
2022-08-17T03:04:00.031Z,80.29
2022-08-17T03:04:35.309Z,80.33
2022-08-17T03:05:11.831Z,80.24
2022-08-17T03:05:48.420Z,80.30
2022-08-17T03:06:21.625Z,80.24
2022-08-17T03:06:54.831Z,80.22
2022-08-17T03:07:28.013Z,80.26
2022-08-17T03:08:02.252Z,80.24
2022-08-17T03:08:37.801Z,80.25
2022-08-17T03:09:10.952Z,80.25
2022-08-17T03:09:44.147Z,80.25
2022-08-17T03:10:19.790Z,80.28
2022-08-17T03:10:54.009Z,80.26
2022-08-17T03:11:27.185Z,80.17
2022-08-17T03:12:13.141Z,80.21
2022-08-17T03:12:47.240Z,80.08
2022-08-17T03:13:21.243Z,80.17
2022-08-17T03:13:54.525Z,80.11
2022-08-17T03:14:27.645Z,80.10
2022-08-17T03:15:15.733Z,80.10
2022-08-17T03:15:50.236Z,80.14
2022-08-17T03:16:23.393Z,80.15
2022-08-17T03:16:56.527Z,80.18
2022-08-17T03:17:29.621Z,80.19
2022-08-17T03:18:03.861Z,80.16
2022-08-17T03:18:37.086Z,80.07
2022-08-17T03:19:10.374Z,80.04
2022-08-17T03:19:43.478Z,79.95
2022-08-17T03:20:17.495Z,79.85
2022-08-17T03:20:50.611Z,79.72
2022-08-17T03:21:23.881Z,79.65
2022-08-17T03:21:59.042Z,79.63
2022-08-17T03:22:38.483Z,79.45
2022-08-17T03:23:12.306Z,79.36
2022-08-17T03:23:45.454Z,79.35
2022-08-17T03:24:18.603Z,79.30
2022-08-17T03:24:52.999Z,79.14
2022-08-17T03:25:32.418Z,79.07
2022-08-17T03:26:15.395Z,79.05
2022-08-17T03:26:49.528Z,78.98
2022-08-17T03:27:22.801Z,79.00
2022-08-17T03:27:57.130Z,79.07
2022-08-17T03:28:30.537Z,79.03
2022-08-17T03:29:03.827Z,78.99
2022-08-17T03:29:36.962Z,79.01
2022-08-17T03:30:13.546Z,78.97
2022-08-17T03:30:46.886Z,78.89
2022-08-17T03:31:21.707Z,78.88
2022-08-17T03:31:54.882Z,78.83
2022-08-17T03:32:28.046Z,78.72
2022-08-17T03:33:05.117Z,78.68
2022-08-17T03:33:38.385Z,78.74
2022-08-17T03:34:11.545Z,78.68
2022-08-17T03:34:44.803Z,78.67
2022-08-17T03:35:21.687Z,78.75
2022-08-17T03:35:55.218Z,78.72
2022-08-17T03:36:28.471Z,78.84
2022-08-17T03:37:01.635Z,78.80
2022-08-17T03:37:35.140Z,78.94
2022-08-17T03:38:11.477Z,78.89
2022-08-17T03:38:44.545Z,78.88
2022-08-17T03:39:18.418Z,78.87
2022-08-17T03:39:51.689Z,79.00
2022-08-17T03:40:55.890Z,79.00
2022-08-17T03:41:18.179Z,79.03
2022-08-17T03:41:51.411Z,79.13
2022-08-17T03:42:32.246Z,79.11
2022-08-17T03:43:10.033Z,79.14
2022-08-17T03:43:43.423Z,79.18
2022-08-17T03:44:16.546Z,79.27
2022-08-17T03:44:57.898Z,79.33
2022-08-17T03:45:49.788Z,79.34
2022-08-17T03:46:46.157Z,79.34
2022-08-17T03:47:38.132Z,79.43
2022-08-17T03:48:33.273Z,79.39
2022-08-17T03:49:26.941Z,79.50
2022-08-17T03:50:18.637Z,79.48
2022-08-17T03:51:14.645Z,79.56
2022-08-17T03:52:06.689Z,79.44
2022-08-17T03:52:58.527Z,79.63
2022-08-17T03:53:50.784Z,79.55
2022-08-17T03:54:42.398Z,79.57
2022-08-17T03:55:36.086Z,79.70
2022-08-17T03:56:28.619Z,79.84
2022-08-17T03:57:10.064Z,80.01
2022-08-17T03:57:43.391Z,80.03
2022-08-17T03:58:16.575Z,80.00
2022-08-17T03:58:50.164Z,80.11
2022-08-17T03:59:23.581Z,80.08
2022-08-17T04:00:00.248Z,80.21
2022-08-17T04:00:36.309Z,80.20
2022-08-17T04:01:14.352Z,80.28
2022-08-17T04:01:53.734Z,80.34
2022-08-17T04:02:31.117Z,80.39
2022-08-17T04:03:04.765Z,80.43
2022-08-17T04:03:37.848Z,80.38
2022-08-17T04:04:12.159Z,80.39
2022-08-17T04:04:45.527Z,80.42
2022-08-17T04:05:18.706Z,80.48
2022-08-17T04:05:51.743Z,80.48
2022-08-17T04:06:24.951Z,80.42
2022-08-17T04:06:59.030Z,80.46
2022-08-17T04:07:32.196Z,80.41
2022-08-17T04:08:05.951Z,80.49
2022-08-17T04:08:39.632Z,80.48
2022-08-17T04:09:13.652Z,80.53
2022-08-17T04:09:47.110Z,80.55
2022-08-17T04:10:23.622Z,80.52
2022-08-17T04:11:00.841Z,80.67
2022-08-17T04:11:35.581Z,80.58
2022-08-17T04:12:09.282Z,80.66
2022-08-17T04:12:49.377Z,80.62
2022-08-17T04:13:24.864Z,80.71
2022-08-17T04:13:59.053Z,80.64
2022-08-17T04:14:51.751Z,80.70
2022-08-17T04:15:28.592Z,80.65
2022-08-17T04:16:02.316Z,80.76
2022-08-17T04:16:38.140Z,80.71
2022-08-17T04:17:11.804Z,80.74
2022-08-17T04:17:46.123Z,80.72
2022-08-17T04:18:19.704Z,80.69
2022-08-17T04:18:53.654Z,80.72
2022-08-17T04:19:26.772Z,80.58
2022-08-17T04:19:59.980Z,80.70
2022-08-17T04:20:33.710Z,80.64
2022-08-17T04:21:09.219Z,80.58
2022-08-17T04:21:42.373Z,80.62
2022-08-17T04:22:32.597Z,80.52
2022-08-17T04:23:14.758Z,80.59
2022-08-17T04:23:48.346Z,80.58
2022-08-17T04:24:21.714Z,80.62
2022-08-17T04:24:54.875Z,80.63
2022-08-17T04:25:35.357Z,80.64
2022-08-17T04:26:08.738Z,80.60
2022-08-17T04:26:52.443Z,80.69
2022-08-17T04:27:27.804Z,80.66
2022-08-17T04:28:01.594Z,80.69
2022-08-17T04:28:34.825Z,80.68
2022-08-17T04:29:07.979Z,80.74
2022-08-17T04:29:50.065Z,80.74
2022-08-17T04:30:32.503Z,80.77
2022-08-17T04:31:06.261Z,80.78
2022-08-17T04:31:40.024Z,80.79
2022-08-17T04:32:13.159Z,80.77
2022-08-17T04:33:05.222Z,80.81
2022-08-17T04:33:44.277Z,80.75
2022-08-17T04:34:19.712Z,80.88
2022-08-17T04:34:54.033Z,80.94
2022-08-17T04:35:32.174Z,80.90
2022-08-17T04:36:08.022Z,80.92
2022-08-17T04:36:41.120Z,80.87
2022-08-17T04:37:24.188Z,80.86
2022-08-17T04:37:58.255Z,80.92
2022-08-17T04:38:35.292Z,81.01
2022-08-17T04:39:08.439Z,80.94
2022-08-17T04:40:04.077Z,81.05
2022-08-17T04:40:56.854Z,80.89
2022-08-17T04:41:48.447Z,81.00
2022-08-17T04:42:21.709Z,81.00
2022-08-17T04:43:10.586Z,81.11
2022-08-17T04:43:45.698Z,81.16
2022-08-17T04:44:36.768Z,81.14
2022-08-17T04:45:10.996Z,81.17
2022-08-17T04:45:56.375Z,81.14
2022-08-17T04:46:35.891Z,81.23
2022-08-17T04:47:10.703Z,81.32
2022-08-17T04:47:46.839Z,81.27
2022-08-17T04:48:20.566Z,81.32
2022-08-17T04:48:57.023Z,81.40
2022-08-17T04:49:30.201Z,81.42
2022-08-17T04:50:04.557Z,81.48
2022-08-17T04:50:44.042Z,81.50
2022-08-17T04:51:32.918Z,81.48
2022-08-17T04:52:06.331Z,81.46
2022-08-17T04:52:47.042Z,81.58
2022-08-17T04:53:21.941Z,81.55
2022-08-17T04:54:17.129Z,81.61
2022-08-17T04:54:50.327Z,81.62
2022-08-17T04:55:23.953Z,81.64
2022-08-17T04:55:59.491Z,81.71
2022-08-17T04:56:33.888Z,81.63
2022-08-17T04:57:07.063Z,81.74
2022-08-17T04:57:44.534Z,81.78
2022-08-17T04:58:19.878Z,81.83
2022-08-17T04:59:01.327Z,81.82
2022-08-17T04:59:34.522Z,81.82
2022-08-17T05:00:10.474Z,81.84
2022-08-17T05:00:44.191Z,81.86
2022-08-17T05:01:23.326Z,81.91
2022-08-17T05:01:57.896Z,81.92
2022-08-17T05:02:32.495Z,81.92
2022-08-17T05:03:06.514Z,82.00
2022-08-17T05:03:43.746Z,81.98
2022-08-17T05:04:34.105Z,81.99
2022-08-17T05:05:09.125Z,82.03
2022-08-17T05:05:52.322Z,82.01
2022-08-17T05:06:27.090Z,82.05
2022-08-17T05:07:00.315Z,82.19
2022-08-17T05:07:33.547Z,82.21
2022-08-17T05:08:08.352Z,82.18
2022-08-17T05:08:41.628Z,82.22
2022-08-17T05:09:14.853Z,82.33
2022-08-17T05:09:48.017Z,82.41
2022-08-17T05:10:24.006Z,82.41
2022-08-17T05:10:57.093Z,82.47
2022-08-17T05:11:31.386Z,82.49
2022-08-17T05:12:05.008Z,82.48
2022-08-17T05:12:38.542Z,82.50
2022-08-17T05:13:16.888Z,82.62
2022-08-17T05:13:50.523Z,82.57
2022-08-17T05:14:33.450Z,82.62
2022-08-17T05:15:17.461Z,82.63
2022-08-17T05:15:59.708Z,82.68
2022-08-17T05:16:33.110Z,82.72
2022-08-17T05:17:07.250Z,82.86
2022-08-17T05:17:44.567Z,82.78
2022-08-17T05:18:17.848Z,82.81
2022-08-17T05:18:52.262Z,82.80
2022-08-17T05:19:25.348Z,82.81
2022-08-17T05:19:58.469Z,82.85
2022-08-17T05:20:32.869Z,82.89
2022-08-17T05:21:07.119Z,82.88
2022-08-17T05:21:40.374Z,83.00
2022-08-17T05:22:14.978Z,82.84
2022-08-17T05:22:53.802Z,82.96
2022-08-17T05:23:34.989Z,82.96
2022-08-17T05:24:39.113Z,83.05
2022-08-17T05:25:10.443Z,83.03
2022-08-17T05:25:48.427Z,83.06
2022-08-17T05:26:26.833Z,82.99
2022-08-17T05:27:05.052Z,82.99
2022-08-17T05:27:40.101Z,83.12
2022-08-17T05:28:22.902Z,83.02
2022-08-17T05:29:02.772Z,83.11
2022-08-17T05:29:37.251Z,83.03
2022-08-17T05:30:10.871Z,82.93
2022-08-17T05:30:45.138Z,82.99
2022-08-17T05:31:22.420Z,82.92
2022-08-17T05:31:56.141Z,82.97
2022-08-17T05:32:39.626Z,83.03
2022-08-17T05:33:19.989Z,83.01
2022-08-17T05:33:53.688Z,83.03
2022-08-17T05:34:26.973Z,82.91
2022-08-17T05:35:00.765Z,82.94
2022-08-17T05:35:37.783Z,83.02
2022-08-17T05:36:43.363Z,83.04
2022-08-17T05:37:07.346Z,83.01
2022-08-17T05:37:40.523Z,83.08
2022-08-17T05:38:18.399Z,83.14
2022-08-17T05:38:51.644Z,83.12
2022-08-17T05:39:24.896Z,83.10
2022-08-17T05:39:58.163Z,83.21
2022-08-17T05:40:32.855Z,83.23
2022-08-17T05:41:08.318Z,83.23
2022-08-17T05:41:41.468Z,83.26
2022-08-17T05:42:19.849Z,83.19
2022-08-17T05:43:23.301Z,83.31
2022-08-17T05:43:56.794Z,83.17
2022-08-17T05:44:30.038Z,83.17
2022-08-17T05:45:04.531Z,83.17
2022-08-17T05:45:55.494Z,83.12
2022-08-17T05:46:36.146Z,83.08
2022-08-17T05:47:09.891Z,83.07
2022-08-17T05:47:46.938Z,83.06
2022-08-17T05:48:20.384Z,83.18
2022-08-17T05:48:59.390Z,82.96
2022-08-17T05:49:34.055Z,83.03
2022-08-17T05:50:09.499Z,83.04
2022-08-17T05:50:56.447Z,83.03
2022-08-17T05:51:55.999Z,82.92
2022-08-17T05:52:29.008Z,82.80
2022-08-17T05:53:28.617Z,82.90
2022-08-17T05:54:07.638Z,82.76
2022-08-17T05:54:52.723Z,82.83
2022-08-17T05:55:35.813Z,82.71
2022-08-17T05:56:53.272Z,82.68
2022-08-17T05:57:52.880Z,82.62
2022-08-17T05:58:45.797Z,82.65
2022-08-17T05:59:38.649Z,82.65
2022-08-17T06:00:37.137Z,82.71
2022-08-17T06:01:34.857Z,82.79
2022-08-17T06:02:11.063Z,82.72
2022-08-17T06:02:59.368Z,82.91
2022-08-17T06:03:47.407Z,82.83
2022-08-17T06:04:47.446Z,82.77
2022-08-17T06:05:45.408Z,82.93
2022-08-17T06:06:31.568Z,82.76
2022-08-17T06:07:19.855Z,82.80
2022-08-17T06:08:07.087Z,82.74
2022-08-17T06:09:11.383Z,82.68
2022-08-17T06:09:54.436Z,82.70
2022-08-17T06:10:38.014Z,82.72
2022-08-17T06:11:37.317Z,82.75
2022-08-17T06:12:21.728Z,82.56
2022-08-17T06:13:27.050Z,82.51
2022-08-17T06:14:08.446Z,82.61
2022-08-17T06:15:13.883Z,82.51
2022-08-17T06:16:25.845Z,82.46
2022-08-17T06:17:07.276Z,82.52
2022-08-17T06:17:42.438Z,82.58
2022-08-17T06:18:19.195Z,82.56
2022-08-17T06:19:10.468Z,82.65
2022-08-17T06:20:12.899Z,82.62
2022-08-17T06:20:50.764Z,82.71
2022-08-17T06:21:26.368Z,82.59
2022-08-17T06:22:06.801Z,82.68
2022-08-17T06:22:51.179Z,82.55
2022-08-17T06:24:13.556Z,82.54
2022-08-17T06:24:54.434Z,82.49
2022-08-17T06:25:35.363Z,82.50
2022-08-17T06:26:38.330Z,82.52
2022-08-17T06:27:13.494Z,82.48
2022-08-17T06:27:53.410Z,82.44
2022-08-17T06:28:47.792Z,82.58
2022-08-17T06:29:37.364Z,82.44
2022-08-17T06:30:20.569Z,82.41
2022-08-17T06:31:01.575Z,82.38
2022-08-17T06:31:38.847Z,82.48
2022-08-17T06:32:13.823Z,82.29
2022-08-17T06:32:51.225Z,82.04
2022-08-17T06:33:31.271Z,82.00
2022-08-17T06:34:10.000Z,81.83
2022-08-17T06:34:46.306Z,81.76
2022-08-17T06:36:09.386Z,81.75
2022-08-17T06:37:12.159Z,81.58
2022-08-17T06:38:10.643Z,81.66
2022-08-17T06:39:38.159Z,81.67
2022-08-17T06:40:48.677Z,81.65
2022-08-17T06:41:58.804Z,81.63
2022-08-17T06:43:02.000Z,81.77
2022-08-17T06:44:03.647Z,81.62
2022-08-17T06:44:49.660Z,81.54
2022-08-17T06:45:31.638Z,81.52
2022-08-17T06:46:24.496Z,81.55
2022-08-17T06:47:09.462Z,81.50
2022-08-17T06:48:08.065Z,81.72
2022-08-17T06:49:26.648Z,81.67
2022-08-17T06:49:59.766Z,81.75
2022-08-17T06:50:41.114Z,81.64
2022-08-17T06:51:35.136Z,81.72
2022-08-17T06:52:45.961Z,81.79
2022-08-17T06:53:29.701Z,81.66
2022-08-17T06:54:16.645Z,81.66
2022-08-17T06:55:17.982Z,81.73
2022-08-17T06:56:01.818Z,81.68
2022-08-17T06:57:12.850Z,81.83
2022-08-17T06:57:53.054Z,81.63
2022-08-17T06:58:31.583Z,81.75
2022-08-17T06:59:08.423Z,81.69
2022-08-17T07:00:02.604Z,81.80
2022-08-17T07:00:43.266Z,81.72
2022-08-17T07:01:24.532Z,81.77
2022-08-17T07:02:05.034Z,81.78
2022-08-17T07:03:02.552Z,81.78
2022-08-17T07:03:47.049Z,81.67
2022-08-17T07:04:27.116Z,81.72
2022-08-17T07:05:01.963Z,81.50
2022-08-17T07:06:01.355Z,81.58
2022-08-17T07:06:41.112Z,81.15
2022-08-17T07:07:34.278Z,81.12
2022-08-17T07:08:24.359Z,81.18
2022-08-17T07:09:15.276Z,81.30
2022-08-17T07:09:49.814Z,81.25
2022-08-17T07:10:25.887Z,81.49
2022-08-17T07:11:04.167Z,81.18
2022-08-17T07:12:02.609Z,81.41
2022-08-17T07:12:39.652Z,81.45
2022-08-17T07:13:37.004Z,81.30
2022-08-17T07:14:32.137Z,81.30
2022-08-17T07:15:19.179Z,81.15
2022-08-17T07:16:00.523Z,81.24
2022-08-17T07:16:56.884Z,81.01
2022-08-17T07:17:46.742Z,81.03
2022-08-17T07:18:24.049Z,80.91
2022-08-17T07:18:59.782Z,80.94
2022-08-17T07:19:36.145Z,80.88
2022-08-17T07:20:18.780Z,80.88
2022-08-17T07:21:00.522Z,80.99
2022-08-17T07:21:48.707Z,80.90
2022-08-17T07:22:53.533Z,80.63
2022-08-17T07:23:52.163Z,80.85
2022-08-17T07:24:36.007Z,80.60
2022-08-17T07:25:12.196Z,80.76
2022-08-17T07:25:51.082Z,80.67
2022-08-17T07:26:24.635Z,80.63
2022-08-17T07:27:32.555Z,80.58
2022-08-17T07:28:08.052Z,80.62
2022-08-17T07:28:43.915Z,80.50
2022-08-17T07:29:20.149Z,80.39
2022-08-17T07:29:57.196Z,80.37
2022-08-17T07:30:49.569Z,80.47
2022-08-17T07:31:26.519Z,80.26
2022-08-17T07:32:00.112Z,80.32
2022-08-17T07:32:45.794Z,80.44
2022-08-17T07:33:21.030Z,80.29
2022-08-17T07:34:09.081Z,80.39
2022-08-17T07:35:04.890Z,80.09
2022-08-17T07:35:44.149Z,80.07
2022-08-17T07:36:30.052Z,80.13
2022-08-17T07:37:05.621Z,79.96
2022-08-17T07:38:25.913Z,79.73
2022-08-17T07:39:02.060Z,79.77
2022-08-17T07:39:35.224Z,79.65
2022-08-17T07:40:37.012Z,79.73
2022-08-17T07:41:11.689Z,79.68
2022-08-17T07:41:53.060Z,79.59
2022-08-17T07:42:31.140Z,79.38
2022-08-17T07:43:06.813Z,79.47
2022-08-17T07:43:39.934Z,79.53
2022-08-17T07:44:16.531Z,79.29
2022-08-17T07:44:54.659Z,79.20
2022-08-17T07:45:46.563Z,79.27
2022-08-17T07:46:53.834Z,79.13
2022-08-17T07:47:45.681Z,79.01
2022-08-17T07:48:26.819Z,78.83
2022-08-17T07:49:09.039Z,78.75
2022-08-17T07:49:46.710Z,78.41
2022-08-17T07:50:29.835Z,78.37
2022-08-17T07:51:17.019Z,78.40
2022-08-17T07:51:52.333Z,78.56
2022-08-17T07:52:50.797Z,78.52
2022-08-17T07:53:26.357Z,78.62
2022-08-17T07:54:22.933Z,78.55
2022-08-17T07:54:56.710Z,78.59
2022-08-17T07:55:35.131Z,78.24
2022-08-17T07:56:08.368Z,78.34
2022-08-17T07:56:46.868Z,78.22
2022-08-17T07:57:40.804Z,77.95
2022-08-17T07:58:19.680Z,78.00
2022-08-17T07:59:08.630Z,77.95
2022-08-17T08:00:19.741Z,77.79
2022-08-17T08:01:10.044Z,77.76
2022-08-17T08:01:47.779Z,77.78
2022-08-17T08:02:39.438Z,77.74
2022-08-17T08:03:32.412Z,77.89
2022-08-17T08:04:49.929Z,77.81
2022-08-17T08:05:49.259Z,77.79
2022-08-17T08:06:23.514Z,77.54
2022-08-17T08:06:59.851Z,77.37
2022-08-17T08:07:39.064Z,76.99
2022-08-17T08:08:33.854Z,76.98
2022-08-17T08:09:07.248Z,76.81
2022-08-17T08:09:42.353Z,76.48
2022-08-17T08:10:31.665Z,76.41
2022-08-17T08:11:09.779Z,76.43
2022-08-17T08:11:44.462Z,76.28
2022-08-17T08:12:33.299Z,76.20
2022-08-17T08:13:14.465Z,76.21
2022-08-17T08:13:50.253Z,75.88
2022-08-17T08:14:29.887Z,75.80
2022-08-17T08:15:39.688Z,75.69
2022-08-17T08:16:26.660Z,75.81
2022-08-17T08:17:09.475Z,75.81
2022-08-17T08:18:03.264Z,75.96
2022-08-17T08:18:55.392Z,75.83
2022-08-17T08:19:32.416Z,75.80
2022-08-17T08:20:51.444Z,75.84
2022-08-17T08:21:13.843Z,75.69
2022-08-17T08:21:56.717Z,75.78
2022-08-17T08:22:55.707Z,75.45
2022-08-17T08:23:31.762Z,75.49
2022-08-17T08:24:16.910Z,75.24
2022-08-17T08:25:16.434Z,75.15
2022-08-17T08:25:56.957Z,75.31
2022-08-17T08:27:16.239Z,75.11
2022-08-17T08:28:14.116Z,74.96
2022-08-17T08:28:53.294Z,74.65
2022-08-17T08:29:39.084Z,74.59
2022-08-17T08:30:21.751Z,74.50
2022-08-17T08:31:08.669Z,74.58
2022-08-17T08:31:50.939Z,74.36
2022-08-17T08:32:30.234Z,74.19
2022-08-17T08:33:22.307Z,74.06
2022-08-17T08:34:06.423Z,73.97
2022-08-17T08:35:13.513Z,74.02
2022-08-17T08:35:52.617Z,74.08
2022-08-17T08:37:15.767Z,74.01
2022-08-17T08:37:55.999Z,73.98
2022-08-17T08:38:43.625Z,74.10
2022-08-17T08:39:32.567Z,73.94
2022-08-17T08:40:30.481Z,73.92
2022-08-17T08:41:26.119Z,73.73